Time;durP1;ratioP1;P1;durP2;ratioP2;P2;SDS_P1;SDS_P2;PMS_P1;PMS_P2;Temp;Humidity;BMP_temperature;BMP_pressure;BME280_temperature;BME280_humidity;BME280_pressure;Samples;Min_cycle;Max_cycle;Signal;HPM_P1;HPM_P2
2021/05/07 00:01:16;;;;;;;29.35;21.77;;;8.40;99.90;;;;;;5067191;28;20029;-72
2021/05/07 00:03:41;;;;;;;31.88;21.10;;;8.40;99.90;;;;;;5064921;28;20025;-72
2021/05/07 00:06:07;;;;;;;27.88;19.90;;;8.40;99.90;;;;;;5059952;28;20056;-72
2021/05/07 00:08:40;;;;;;;33.28;21.80;;;8.40;99.90;;;;;;5045079;28;20115;-72
2021/05/07 00:11:14;;;;;;;32.30;22.95;;;8.40;99.90;;;;;;5066247;28;20135;-73
2021/05/07 00:13:40;;;;;;;31.75;20.90;;;8.40;99.90;;;;;;5048768;28;21133;-72
2021/05/07 00:16:06;;;;;;;29.83;20.02;;;8.40;99.90;;;;;;5060392;28;20024;-72
2021/05/07 00:18:33;;;;;;;32.33;22.05;;;8.40;99.90;;;;;;5053837;28;20035;-73
2021/05/07 00:20:59;;;;;;;29.40;21.02;;;8.40;99.90;;;;;;5061433;28;20046;-72
2021/05/07 00:23:24;;;;;;;29.38;20.58;;;8.30;99.90;;;;;;5064922;28;20023;-72
2021/05/07 00:25:51;;;;;;;33.97;22.38;;;8.40;99.90;;;;;;5060739;28;20382;-72
2021/05/07 00:28:18;;;;;;;31.17;21.42;;;8.30;99.90;;;;;;5058413;28;20028;-72
2021/05/07 00:30:44;;;;;;;33.30;22.58;;;8.30;99.90;;;;;;5061267;28;20040;-72
2021/05/07 00:33:09;;;;;;;33.28;23.52;;;8.20;99.90;;;;;;5060509;28;20107;-72
2021/05/07 00:35:36;;;;;;;35.45;22.33;;;8.20;99.90;;;;;;5057540;28;20463;-72
2021/05/07 00:38:02;;;;;;;27.90;20.15;;;8.20;99.90;;;;;;5061331;28;20024;-72
2021/05/07 00:40:28;;;;;;;24.17;16.20;;;8.20;99.90;;;;;;5059056;28;20077;-73
2021/05/07 00:42:54;;;;;;;21.88;16.85;;;8.10;99.90;;;;;;5040721;28;20033;-73
2021/05/07 00:45:19;;;;;;;27.77;17.25;;;8.10;99.90;;;;;;5057965;28;20477;-72
2021/05/07 00:47:58;;;;;;;22.67;16.52;;;8.10;99.90;;;;;;5059542;28;20033;-72
2021/05/07 00:50:28;;;;;;;28.33;19.40;;;8.10;99.90;;;;;;5053938;28;20092;-72
2021/05/07 00:52:58;;;;;;;29.25;20.60;;;8.00;99.90;;;;;;5054977;28;20032;-73
2021/05/07 00:55:25;;;;;;;27.58;19.33;;;7.90;99.90;;;;;;5059646;28;20147;-72
2021/05/07 00:57:51;;;;;;;29.58;18.98;;;7.90;99.90;;;;;;5057669;28;20386;-72
2021/05/07 01:00:17;;;;;;;28.77;18.70;;;7.90;99.90;;;;;;5062803;28;20017;-72
2021/05/07 01:02:43;;;;;;;27.75;19.48;;;7.80;99.90;;;;;;5056554;28;20025;-72
2021/05/07 01:05:09;;;;;;;31.50;20.58;;;7.70;99.90;;;;;;5057061;28;20032;-72
2021/05/07 01:07:36;;;;;;;31.00;22.00;;;7.60;99.90;;;;;;5050554;28;20040;-72
2021/05/07 01:10:04;;;;;;;35.08;23.00;;;7.60;99.90;;;;;;5055616;28;20021;-72
2021/05/07 01:12:30;;;;;;;35.47;21.83;;;7.60;99.90;;;;;;5041946;28;20051;-72
2021/05/07 01:15:19;;;;;;;32.80;21.63;;;7.50;99.90;;;;;;5051331;28;20060;-72
2021/05/07 01:17:47;;;;;;;33.38;21.65;;;7.50;99.90;;;;;;5056765;28;20025;-72
2021/05/07 01:20:15;;;;;;;36.35;24.40;;;7.40;99.90;;;;;;5057674;28;20020;-72
2021/05/07 01:22:44;;;;;;;33.08;22.48;;;7.50;99.90;;;;;;5061165;28;20032;-72
2021/05/07 01:25:11;;;;;;;33.45;19.98;;;7.50;99.90;;;;;;5058034;28;20066;-71
2021/05/07 01:27:39;;;;;;;31.88;21.35;;;7.50;99.90;;;;;;5055912;28;20103;-71
2021/05/07 01:30:26;;;;;;;34.00;22.45;;;7.30;99.90;;;;;;5056573;28;20025;-71
2021/05/07 01:32:52;;;;;;;37.03;21.00;;;7.30;99.90;;;;;;5057819;28;20040;-71
2021/05/07 01:35:20;;;;;;;34.30;22.70;;;7.30;99.90;;;;;;5060259;28;20021;-71
2021/05/07 01:37:49;;;;;;;32.13;20.80;;;7.20;99.90;;;;;;5062978;28;20145;-71
2021/05/07 01:40:22;;;;;;;28.33;18.80;;;7.20;99.90;;;;;;5056145;28;20021;-71
2021/05/07 01:42:47;;;;;;;;;;;7.20;99.90;;;;;;5062276;28;20523;-71
2021/05/07 01:45:15;;;;;;;36.30;21.58;;;7.10;99.90;;;;;;5054151;28;19956;-71
2021/05/07 01:47:42;;;;;;;35.92;24.27;;;7.20;99.90;;;;;;5058720;28;20033;-71
2021/05/07 01:50:09;;;;;;;39.97;24.25;;;7.20;99.90;;;;;;5062322;28;20029;-71
2021/05/07 01:52:35;;;;;;;27.92;18.95;;;7.20;99.90;;;;;;5064305;28;20666;-71
2021/05/07 01:55:03;;;;;;;32.03;19.85;;;7.20;99.90;;;;;;5060907;28;20035;-71
2021/05/07 01:57:32;;;;;;;32.25;20.77;;;7.10;99.90;;;;;;5057920;28;20020;-71
2021/05/07 01:59:58;;;;;;;31.85;21.08;;;6.90;99.90;;;;;;5057409;28;20097;-71
2021/05/07 02:02:24;;;;;;;31.55;20.52;;;6.90;99.90;;;;;;5048905;28;20475;-71
2021/05/07 02:04:50;;;;;;;28.95;19.77;;;6.80;99.90;;;;;;5045102;28;20037;-71
2021/05/07 02:07:16;;;;;;;37.00;23.83;;;6.80;99.90;;;;;;5059444;28;20046;-71
2021/05/07 02:09:41;;;;;;;35.95;24.13;;;6.80;99.90;;;;;;5057584;28;20028;-70
2021/05/07 02:12:07;;;;;;;41.17;24.80;;;6.70;99.90;;;;;;5061673;28;20025;-71
2021/05/07 02:14:33;;;;;;;36.03;24.42;;;6.60;99.90;;;;;;5060558;28;20027;-70
2021/05/07 02:17:00;;;;;;;33.22;21.95;;;6.70;99.90;;;;;;5057972;28;20032;-71
2021/05/07 02:19:26;;;;;;;37.55;24.95;;;6.70;99.90;;;;;;5052409;28;20028;-71
2021/05/07 02:21:52;;;;;;;41.60;26.10;;;6.70;99.90;;;;;;5062014;28;20025;-71
2021/05/07 02:24:17;;;;;;;35.75;23.67;;;6.70;99.90;;;;;;5048328;28;20043;-71
2021/05/07 02:26:43;;;;;;;38.58;24.77;;;6.80;99.90;;;;;;5055030;28;20035;-70
2021/05/07 02:29:09;;;;;;;49.33;29.33;;;6.80;99.90;;;;;;5059442;28;20086;-71
2021/05/07 02:31:34;;;;;;;54.58;30.77;;;6.70;99.90;;;;;;5048404;28;20076;-71
2021/05/07 02:34:00;;;;;;;45.30;28.95;;;6.70;99.90;;;;;;5065022;28;20108;-71
2021/05/07 02:36:26;;;;;;;44.72;28.02;;;6.80;99.90;;;;;;5065578;28;20024;-70
2021/05/07 02:38:53;;;;;;;49.15;30.60;;;6.80;99.90;;;;;;5062395;28;20024;-71
2021/05/07 02:41:19;;;;;;;44.60;29.58;;;6.80;99.90;;;;;;5060785;28;20028;-71
2021/05/07 02:43:44;;;;;;;52.80;33.15;;;6.80;99.90;;;;;;5053917;28;20025;-71
2021/05/07 02:46:13;;;;;;;41.85;26.38;;;6.90;99.90;;;;;;5067982;28;20077;-71
2021/05/07 02:48:39;;;;;;;39.60;26.38;;;6.90;99.90;;;;;;5061274;28;20029;-71
2021/05/07 02:51:05;;;;;;;40.08;26.00;;;6.90;99.90;;;;;;5048702;28;20025;-70
2021/05/07 02:53:30;;;;;;;40.00;26.65;;;6.90;99.90;;;;;;5062986;28;20029;-71
2021/05/07 02:55:56;;;;;;;42.50;26.73;;;6.80;99.90;;;;;;5064354;28;20032;-71
2021/05/07 02:58:21;;;;;;;50.25;29.77;;;6.80;99.90;;;;;;5049886;28;20024;-71
2021/05/07 03:00:47;;;;;;;51.08;31.70;;;6.80;99.90;;;;;;5066744;28;20389;-71
2021/05/07 03:03:12;;;;;;;60.63;36.85;;;6.70;99.90;;;;;;5066522;28;20034;-71
2021/05/07 03:05:38;;;;;;;58.58;37.35;;;6.70;99.90;;;;;;5062829;28;20059;-71
2021/05/07 03:08:04;;;;;;;67.78;42.10;;;6.70;99.90;;;;;;5065765;28;20044;-71
2021/05/07 03:10:29;;;;;;;69.07;44.40;;;6.70;99.90;;;;;;5065980;28;20484;-71
2021/05/07 03:12:55;;;;;;;72.53;45.92;;;6.70;99.90;;;;;;5062379;28;20032;-71
2021/05/07 03:15:20;;;;;;;75.90;46.10;;;6.70;99.90;;;;;;5049047;28;20024;-72
2021/05/07 03:17:49;;;;;;;80.75;49.00;;;6.70;99.90;;;;;;5062007;28;20047;-70
2021/05/07 03:20:15;;;;;;;77.05;45.45;;;6.70;99.90;;;;;;5060276;28;20500;-70
2021/05/07 03:22:40;;;;;;;85.65;49.88;;;6.70;99.90;;;;;;5061425;28;20029;-71
2021/05/07 03:25:06;;;;;;;88.72;52.45;;;6.70;99.90;;;;;;5061054;28;20020;-71
2021/05/07 03:27:32;;;;;;;88.22;51.53;;;6.80;99.90;;;;;;5058941;28;20024;-71
2021/05/07 03:29:57;;;;;;;86.50;52.40;;;6.70;99.90;;;;;;5059237;28;20059;-71
2021/05/07 03:32:23;;;;;;;93.47;54.22;;;6.80;99.90;;;;;;5061042;28;20081;-70
2021/05/07 03:34:49;;;;;;;88.97;53.97;;;6.80;99.90;;;;;;5059364;28;20029;-70
2021/05/07 03:37:16;;;;;;;90.97;53.35;;;6.80;99.90;;;;;;5059713;28;20037;-71
2021/05/07 03:39:43;;;;;;;82.70;49.58;;;6.80;99.90;;;;;;5037726;28;20028;-71
2021/05/07 03:42:09;;;;;;;86.20;53.42;;;6.90;99.90;;;;;;5058823;28;20111;-70
2021/05/07 03:44:34;;;;;;;91.20;55.53;;;6.80;99.90;;;;;;5055967;28;20115;-71
2021/05/07 03:47:01;;;;;;;82.88;49.85;;;6.80;99.90;;;;;;5062335;28;20115;-71
2021/05/07 03:49:28;;;;;;;82.38;50.15;;;6.80;99.90;;;;;;5055290;28;20017;-70
2021/05/07 03:51:54;;;;;;;80.47;51.67;;;6.80;99.90;;;;;;5067112;28;20033;-71
2021/05/07 03:54:19;;;;;;;82.32;50.78;;;6.70;99.90;;;;;;5072526;28;20028;-71
2021/05/07 03:56:45;;;;;;;83.45;48.17;;;6.70;99.90;;;;;;5071859;28;20025;-71
2021/05/07 03:59:10;;;;;;;90.25;52.53;;;6.80;99.90;;;;;;5074573;28;20476;-71
2021/05/07 04:01:36;;;;;;;75.82;45.08;;;6.80;99.90;;;;;;5070624;28;20028;-71
2021/05/07 04:04:05;;;;;;;77.32;47.15;;;6.90;99.90;;;;;;5064868;28;20504;-72
2021/05/07 04:06:31;;;;;;;81.80;50.15;;;6.80;99.90;;;;;;5065949;28;20028;-72
2021/05/07 04:14:15;;;;;;;101.55;56.70;;;6.50;99.90;;;;;;5062997;28;20032;-71
2021/05/07 04:16:40;;;;;;;85.57;51.15;;;6.60;99.90;;;;;;5067610;28;20538;-71
2021/05/07 04:19:06;;;;;;;79.28;50.80;;;6.60;99.90;;;;;;5060281;28;20037;-71
2021/05/07 04:21:31;;;;;;;80.90;46.72;;;6.60;99.90;;;;;;5067961;28;20023;-71
2021/05/07 04:23:57;;;;;;;71.97;45.58;;;6.70;99.90;;;;;;5065688;28;20068;-71
2021/05/07 04:26:23;;;;;;;73.88;43.53;;;6.80;99.90;;;;;;5060405;28;20017;-71
2021/05/07 04:28:48;;;;;;;74.90;43.45;;;6.90;99.90;;;;;;5061073;28;20048;-72
2021/05/07 04:31:14;;;;;;;69.97;40.40;;;7.00;99.90;;;;;;5066980;28;20461;-72
2021/05/07 04:33:40;;;;;;;63.88;38.88;;;7.10;99.90;;;;;;5062415;28;20819;-72
2021/05/07 04:36:06;;;;;;;64.90;40.42;;;7.10;99.90;;;;;;5059195;28;20033;-72
2021/05/07 04:38:32;;;;;;;64.20;39.03;;;7.20;99.90;;;;;;5055316;28;20051;-72
2021/05/07 04:40:58;;;;;;;63.85;40.10;;;7.20;99.90;;;;;;5071450;28;20048;-72
2021/05/07 04:43:24;;;;;;;61.65;39.00;;;7.20;99.90;;;;;;5058466;28;20032;-71
2021/05/07 04:45:50;;;;;;;71.05;42.20;;;7.20;99.90;;;;;;5064038;28;20028;-72
2021/05/07 04:48:16;;;;;;;75.53;44.55;;;7.20;99.90;;;;;;5063460;28;20075;-72
2021/05/07 04:50:43;;;;;;;65.07;42.55;;;7.10;99.90;;;;;;5068508;28;20102;-71
2021/05/07 04:53:09;;;;;;;69.82;43.63;;;7.20;99.90;;;;;;5065726;28;20024;-72
2021/05/07 04:55:35;;;;;;;69.70;44.03;;;7.20;99.90;;;;;;5072051;28;20028;-72
2021/05/07 04:58:00;;;;;;;74.50;44.65;;;7.30;99.90;;;;;;5072960;28;20388;-72
2021/05/07 05:00:26;;;;;;;70.65;42.83;;;7.30;99.90;;;;;;5051948;28;20053;-71
2021/05/07 05:02:53;;;;;;;70.95;43.45;;;7.30;99.90;;;;;;5046418;28;20081;-72
2021/05/07 05:05:18;;;;;;;70.10;43.42;;;7.30;99.90;;;;;;5069321;28;20032;-72
2021/05/07 05:07:52;;;;;;;67.57;42.30;;;7.40;99.90;;;;;;5045349;28;20040;-72
2021/05/07 05:10:19;;;;;;;63.78;35.90;;;7.30;99.90;;;;;;5066863;28;20505;-72
2021/05/07 05:12:44;;;;;;;58.63;35.10;;;7.40;99.90;;;;;;5046307;28;20021;-72
2021/05/07 05:15:11;;;;;;;53.47;32.47;;;7.40;99.90;;;;;;5065553;28;20398;-72
2021/05/07 05:17:37;;;;;;;52.85;31.40;;;7.50;99.90;;;;;;5066701;28;20039;-72
2021/05/07 05:20:04;;;;;;;55.90;34.22;;;7.40;99.90;;;;;;5062285;28;20020;-72
2021/05/07 05:22:29;;;;;;;50.50;30.48;;;7.50;99.90;;;;;;5071606;28;20032;-72
2021/05/07 05:24:55;;;;;;;49.30;29.92;;;7.50;99.90;;;;;;5074313;28;20556;-72
2021/05/07 05:27:21;;;;;;;50.80;29.38;;;7.50;99.90;;;;;;5069590;28;20024;-72
2021/05/07 05:29:46;;;;;;;42.47;27.17;;;7.60;99.90;;;;;;5078306;28;20024;-72
2021/05/07 05:32:12;;;;;;;47.83;28.70;;;7.40;99.90;;;;;;5066166;28;20470;-72
2021/05/07 05:34:38;;;;;;;49.53;30.25;;;7.50;99.90;;;;;;5065866;28;20024;-72
2021/05/07 05:37:04;;;;;;;50.03;26.45;;;7.50;99.90;;;;;;5070629;28;20017;-71
2021/05/07 05:39:30;;;;;;;43.58;26.30;;;7.50;99.90;;;;;;5067968;28;20024;-72
2021/05/07 05:41:57;;;;;;;41.65;27.48;;;7.50;99.90;;;;;;5068437;28;20028;-72
2021/05/07 05:44:23;;;;;;;43.58;25.17;;;7.50;99.90;;;;;;5069297;28;20036;-72
2021/05/07 05:46:49;;;;;;;43.80;29.67;;;7.50;99.90;;;;;;5078341;28;20024;-72
2021/05/07 05:49:14;;;;;;;34.13;25.70;;;7.30;99.90;;;;;;5068870;28;20499;-72
2021/05/07 05:51:40;;;;;;;30.08;20.95;;;7.20;99.90;;;;;;5072953;28;20048;-72
2021/05/07 05:54:07;;;;;;;29.13;20.92;;;7.00;99.90;;;;;;5069948;28;20024;-72
2021/05/07 05:56:33;;;;;;;26.70;19.67;;;7.00;99.90;;;;;;5064715;28;20027;-72
2021/05/07 05:58:58;;;;;;;26.58;20.65;;;6.80;99.90;;;;;;5054807;28;20133;-72
2021/05/07 06:01:24;;;;;;;21.83;16.42;;;6.70;99.90;;;;;;5067296;28;20044;-74
2021/05/07 06:03:49;;;;;;;26.33;20.10;;;6.70;99.90;;;;;;5064429;28;20124;-71
2021/05/07 06:06:15;;;;;;;21.02;14.75;;;6.70;99.90;;;;;;5074888;28;20361;-72
2021/05/07 06:08:41;;;;;;;16.40;12.85;;;6.50;99.90;;;;;;5064929;28;20051;-72
2021/05/07 06:11:07;;;;;;;17.95;13.68;;;6.30;99.90;;;;;;5064415;28;20035;-72
2021/05/07 06:13:32;;;;;;;17.88;12.35;;;6.30;99.90;;;;;;5071982;28;20035;-72
2021/05/07 06:15:58;;;;;;;17.60;11.45;;;6.20;99.90;;;;;;5070410;28;20142;-72
2021/05/07 06:18:23;;;;;;;13.40;10.02;;;6.10;99.90;;;;;;5070672;28;20416;-72
2021/05/07 06:20:49;;;;;;;11.00;7.90;;;6.00;99.90;;;;;;5046376;28;20113;-71
2021/05/07 06:23:15;;;;;;;9.02;7.22;;;5.90;99.90;;;;;;5070501;28;20024;-71
2021/05/07 06:25:40;;;;;;;9.93;6.88;;;5.80;99.90;;;;;;5048045;28;20037;-71
2021/05/07 06:28:06;;;;;;;10.27;7.00;;;5.70;99.90;;;;;;5058186;28;20044;-72
2021/05/07 06:30:32;;;;;;;8.45;6.70;;;5.70;99.90;;;;;;5051047;28;20020;-72
2021/05/07 06:32:57;;;;;;;8.52;7.55;;;5.80;99.90;;;;;;5065710;28;20485;-71
2021/05/07 06:35:23;;;;;;;9.15;7.32;;;5.80;99.90;;;;;;5060730;28;20032;-72
2021/05/07 06:37:48;;;;;;;9.35;7.55;;;5.70;99.90;;;;;;5069148;28;20032;-71
2021/05/07 06:40:16;;;;;;;9.85;8.00;;;5.70;99.90;;;;;;5069010;28;20021;-72
2021/05/07 06:42:42;;;;;;;8.80;7.07;;;5.90;99.90;;;;;;5073934;28;20020;-72
2021/05/07 06:45:11;;;;;;;8.25;6.65;;;6.00;99.90;;;;;;5059660;28;20048;-71
2021/05/07 06:47:37;;;;;;;9.18;6.57;;;6.20;99.90;;;;;;5064008;28;20123;-71
2021/05/07 06:50:04;;;;;;;8.25;6.65;;;6.30;99.90;;;;;;5065148;28;20052;-72
2021/05/07 06:52:31;;;;;;;7.28;6.35;;;6.30;99.90;;;;;;5065929;28;20029;-72
2021/05/07 06:54:56;;;;;;;13.18;6.55;;;6.40;99.90;;;;;;5055859;28;20100;-72
2021/05/07 06:57:22;;;;;;;9.52;5.97;;;6.30;99.90;;;;;;5068862;28;20115;-72
2021/05/07 06:59:49;;;;;;;6.95;6.18;;;6.50;99.90;;;;;;5065847;28;20060;-72
2021/05/07 07:02:16;;;;;;;6.60;5.88;;;6.60;99.90;;;;;;5073015;28;20020;-72
2021/05/07 07:04:41;;;;;;;6.93;6.07;;;6.60;99.90;;;;;;5065360;28;20061;-73
2021/05/07 07:07:07;;;;;;;6.78;6.07;;;6.70;99.90;;;;;;5069696;28;20067;-72
2021/05/07 07:09:32;;;;;;;7.18;6.47;;;6.90;99.90;;;;;;5066963;28;20022;-72
2021/05/07 07:11:58;;;;;;;6.07;5.47;;;7.00;99.90;;;;;;5065158;28;20025;-72
2021/05/07 07:14:24;;;;;;;6.43;5.50;;;6.90;99.90;;;;;;5070534;28;20035;-73
2021/05/07 07:16:49;;;;;;;8.02;6.07;;;7.00;99.90;;;;;;5061168;28;20562;-72
2021/05/07 07:19:15;;;;;;;9.15;7.72;;;7.10;99.90;;;;;;5069808;28;20031;-72
2021/05/07 07:21:41;;;;;;;9.50;7.22;;;7.10;99.90;;;;;;5070113;28;20029;-72
2021/05/07 07:24:07;;;;;;;9.73;7.32;;;7.20;99.90;;;;;;5067054;28;20094;-72
2021/05/07 07:26:33;;;;;;;10.25;8.52;;;7.20;99.90;;;;;;5064507;28;20040;-72
2021/05/07 07:28:58;;;;;;;7.10;6.40;;;7.10;99.90;;;;;;5067793;28;20488;-73
2021/05/07 07:31:24;;;;;;;8.10;6.90;;;7.30;99.90;;;;;;5056587;28;20032;-72
2021/05/07 07:33:50;;;;;;;9.40;7.57;;;7.40;99.90;;;;;;5048486;28;20028;-72
2021/05/07 07:36:15;;;;;;;8.13;7.32;;;7.50;99.90;;;;;;5060275;28;20040;-72
2021/05/07 07:38:41;;;;;;;6.82;6.18;;;7.60;99.90;;;;;;5052250;28;20030;-72
2021/05/07 07:41:07;;;;;;;7.15;6.45;;;7.60;99.90;;;;;;5060086;28;20389;-73
2021/05/07 07:43:33;;;;;;;7.03;6.05;;;7.70;99.90;;;;;;5051342;28;20066;-72
2021/05/07 07:45:59;;;;;;;7.47;6.45;;;8.00;99.90;;;;;;5071104;28;20024;-72
2021/05/07 07:48:24;;;;;;;7.10;6.40;;;8.20;99.90;;;;;;5069649;28;20500;-72
2021/05/07 07:50:50;;;;;;;6.50;5.90;;;8.20;99.90;;;;;;5064954;28;20025;-72
2021/05/07 07:53:15;;;;;;;7.07;6.38;;;7.90;99.90;;;;;;5068761;28;20408;-72
2021/05/07 07:55:41;;;;;;;6.07;5.47;;;7.80;99.90;;;;;;5071198;28;20028;-72
2021/05/07 07:58:08;;;;;;;6.65;5.90;;;7.70;99.90;;;;;;5065113;28;20028;-72
2021/05/07 08:00:34;;;;;;;6.90;6.20;;;8.00;99.90;;;;;;5062834;28;20032;-72
2021/05/07 08:03:00;;;;;;;6.07;5.47;;;8.10;99.90;;;;;;5044421;28;20017;-72
2021/05/07 08:05:25;;;;;;;6.60;5.95;;;8.20;99.90;;;;;;5070896;28;20016;-72
2021/05/07 08:07:51;;;;;;;6.28;5.68;;;8.30;99.90;;;;;;5063394;28;20041;-71
2021/05/07 08:10:18;;;;;;;7.07;6.38;;;8.20;99.90;;;;;;5063598;28;20020;-71
2021/05/07 08:12:44;;;;;;;6.63;6.03;;;8.30;99.90;;;;;;5069570;28;20498;-72
2021/05/07 08:15:10;;;;;;;6.22;5.63;;;8.30;99.90;;;;;;5071863;28;20095;-72
2021/05/07 08:17:37;;;;;;;7.40;5.80;;;8.40;99.90;;;;;;5060495;28;20051;-72
2021/05/07 08:20:06;;;;;;;7.20;6.32;;;8.70;99.90;;;;;;5070611;28;20035;-71
2021/05/07 08:22:32;;;;;;;6.10;4.93;;;8.70;99.90;;;;;;5070961;28;20024;-72
2021/05/07 08:24:58;;;;;;;5.57;5.07;;;8.70;99.90;;;;;;5054695;28;20032;-71
2021/05/07 08:27:24;;;;;;;6.88;6.18;;;8.80;99.90;;;;;;5050553;28;20036;-72
2021/05/07 08:29:49;;;;;;;6.55;5.97;;;8.90;99.90;;;;;;5067926;28;20036;-72
2021/05/07 08:32:15;;;;;;;7.65;5.45;;;8.90;99.90;;;;;;5069161;28;20017;-71
2021/05/07 08:34:43;;;;;;;7.60;6.60;;;8.90;99.90;;;;;;5066018;28;20024;-72
2021/05/07 08:37:10;;;;;;;7.93;6.88;;;9.00;99.90;;;;;;5067314;28;20112;-71
2021/05/07 08:39:35;;;;;;;7.32;5.82;;;9.30;99.90;;;;;;5065210;28;20044;-72
2021/05/07 08:42:01;;;;;;;7.40;6.40;;;9.30;99.90;;;;;;5066453;28;20120;-72
2021/05/07 08:44:26;;;;;;;6.63;6.00;;;9.40;99.90;;;;;;5049266;28;20075;-71
2021/05/07 08:46:55;;;;;;;6.97;6.38;;;9.40;99.90;;;;;;5056032;28;20033;-72
2021/05/07 08:49:23;;;;;;;9.35;7.40;;;9.60;99.90;;;;;;5064760;28;20025;-71
2021/05/07 08:51:49;;;;;;;7.28;6.25;;;9.80;99.90;;;;;;5071664;28;20108;-72
2021/05/07 08:54:14;;;;;;;8.20;6.30;;;9.90;99.90;;;;;;5062767;28;20143;-72
2021/05/07 08:56:40;;;;;;;6.63;5.82;;;10.10;99.90;;;;;;5070076;28;20021;-72
2021/05/07 08:59:06;;;;;;;6.63;5.85;;;10.40;99.90;;;;;;5061008;28;20381;-72
2021/05/07 09:01:39;;;;;;;7.07;6.38;;;10.40;99.90;;;;;;5061461;28;20048;-72
2021/05/07 09:04:09;;;;;;;7.53;6.32;;;10.30;99.90;;;;;;5063776;28;20446;-72
2021/05/07 09:06:55;;;;;;;8.80;6.20;;;10.40;99.90;;;;;;5064977;28;20135;-71
2021/05/07 09:09:27;;;;;;;9.20;5.90;;;10.70;99.90;;;;;;5067772;28;20028;-72
2021/05/07 09:11:55;;;;;;;8.23;6.65;;;10.80;99.90;;;;;;5065356;28;20055;-71
2021/05/07 09:14:21;;;;;;;8.38;6.70;;;10.70;99.90;;;;;;5068844;28;20481;-71
2021/05/07 09:16:57;;;;;;;7.95;6.72;;;10.60;99.90;;;;;;5067281;28;20111;-71
2021/05/07 09:19:26;;;;;;;9.20;6.57;;;10.80;99.90;;;;;;5066462;28;20028;-71
2021/05/07 09:21:54;;;;;;;7.47;6.68;;;10.90;99.90;;;;;;5060780;28;20504;-72
2021/05/07 09:24:29;;;;;;;7.03;6.32;;;11.10;99.90;;;;;;5062795;28;20111;-72
2021/05/07 09:26:54;;;;;;;9.60;7.22;;;11.40;99.90;;;;;;5072606;28;20112;-71
2021/05/07 09:29:22;;;;;;;7.32;6.57;;;11.60;99.90;;;;;;5062511;28;20600;-72
2021/05/07 09:31:50;;;;;;;8.15;7.30;;;11.30;99.90;;;;;;5062373;28;20024;-72
2021/05/07 09:34:18;;;;;;;8.93;8.02;;;11.20;99.90;;;;;;5063122;28;20021;-72
2021/05/07 09:36:44;;;;;;;9.57;7.80;;;11.40;99.90;;;;;;5061374;28;20027;-73
2021/05/07 09:39:15;;;;;;;8.90;7.65;;;11.60;99.90;;;;;;5069401;28;20021;-72
2021/05/07 09:41:49;;;;;;;11.27;9.35;;;11.50;99.90;;;;;;5071049;28;20025;-72
2021/05/07 09:44:20;;;;;;;10.57;9.48;;;11.70;99.90;;;;;;5073109;28;20051;-71
2021/05/07 09:46:46;;;;;;;9.85;8.23;;;11.70;99.90;;;;;;5060181;28;20025;-71
2021/05/07 09:49:31;;;;;;;9.65;8.77;;;11.80;99.90;;;;;;5071770;28;20032;-71
2021/05/07 09:51:58;;;;;;;12.32;8.98;;;12.10;99.90;;;;;;5063962;28;20519;-72
2021/05/07 09:54:25;;;;;;;9.73;8.75;;;12.20;99.90;;;;;;5075205;28;20028;-71
2021/05/07 09:56:51;;;;;;;11.98;10.82;;;12.20;99.90;;;;;;5077438;28;20062;-71
2021/05/07 09:59:18;;;;;;;12.52;10.40;;;12.20;99.90;;;;;;5061401;28;20020;-71
2021/05/07 10:01:47;;;;;;;9.45;8.55;;;12.00;99.90;;;;;;5060976;28;20179;-72
2021/05/07 10:04:14;;;;;;;9.20;8.13;;;12.00;99.90;;;;;;5070799;28;20028;-72
2021/05/07 10:06:40;;;;;;;8.45;7.55;;;12.20;99.90;;;;;;5064910;28;20148;-72
2021/05/07 10:09:08;;;;;;;8.07;7.30;;;12.70;99.90;;;;;;5070306;28;20040;-71
2021/05/07 10:11:37;;;;;;;7.97;7.28;;;12.50;99.90;;;;;;5075445;28;20166;-71
2021/05/07 10:14:13;;;;;;;11.48;8.52;;;12.40;99.90;;;;;;5079187;28;20036;-71
2021/05/07 10:16:40;;;;;;;10.40;8.23;;;12.10;99.90;;;;;;5056668;28;20475;-72
2021/05/07 10:19:13;;;;;;;7.05;6.35;;;12.30;99.90;;;;;;5076950;28;20089;-71
2021/05/07 10:21:40;;;;;;;7.38;6.78;;;12.50;99.90;;;;;;5077754;28;20035;-71
2021/05/07 10:24:11;;;;;;;6.47;5.95;;;12.90;99.90;;;;;;5072024;28;20016;-71
2021/05/07 10:26:39;;;;;;;7.05;5.82;;;12.80;99.90;;;;;;5074073;28;20019;-71
2021/05/07 10:29:16;;;;;;;6.70;6.07;;;13.20;99.90;;;;;;5072086;28;20047;-71
2021/05/07 10:31:51;;;;;;;6.55;4.35;;;13.20;99.90;;;;;;5071178;28;20021;-72
2021/05/07 10:34:18;;;;;;;5.15;4.50;;;13.10;99.90;;;;;;5067013;28;20028;-72
2021/05/07 10:36:55;;;;;;;4.78;4.30;;;13.40;99.90;;;;;;5067845;28;20024;-72
2021/05/07 10:39:21;;;;;;;5.45;4.95;;;13.80;99.90;;;;;;5077008;28;20025;-72
2021/05/07 10:41:49;;;;;;;4.82;3.88;;;13.80;99.90;;;;;;5071824;28;20012;-71
2021/05/07 10:44:16;;;;;;;4.35;4.00;;;13.80;99.90;;;;;;5062483;28;20035;-72
2021/05/07 10:46:56;;;;;;;4.10;3.80;;;13.80;99.90;;;;;;5069062;28;20017;-72
2021/05/07 10:49:34;;;;;;;5.10;3.33;;;13.80;99.90;;;;;;5069956;28;20035;-72
2021/05/07 10:52:00;;;;;;;8.25;4.93;;;13.80;99.90;;;;;;5072126;28;20025;-72
2021/05/07 10:54:36;;;;;;;8.90;4.38;;;14.00;99.90;;;;;;5068420;28;20028;-72
2021/05/07 10:57:01;;;;;;;5.07;4.60;;;14.30;99.90;;;;;;5072481;28;20111;-72
2021/05/07 10:59:27;;;;;;;3.95;3.55;;;14.20;99.90;;;;;;5068488;28;20103;-72
2021/05/07 11:02:04;;;;;;;4.75;4.20;;;14.10;99.90;;;;;;5058004;28;20057;-72
2021/05/07 11:04:44;;;;;;;4.95;4.30;;;13.80;99.90;;;;;;5062545;28;20048;-72
2021/05/07 11:07:10;;;;;;;5.22;4.75;;;13.70;99.90;;;;;;5061588;28;20531;-71
2021/05/07 11:09:36;;;;;;;5.15;4.63;;;13.90;99.90;;;;;;5070672;28;20044;-72
2021/05/07 11:12:04;;;;;;;6.53;5.07;;;13.90;99.90;;;;;;5076041;28;20089;-72
2021/05/07 11:14:34;;;;;;;6.30;5.70;;;14.20;99.90;;;;;;5077149;28;20381;-72
2021/05/07 11:17:00;;;;;;;6.55;5.30;;;14.40;99.90;;;;;;5077537;28;20024;-72
2021/05/07 11:19:35;;;;;;;5.00;4.57;;;14.40;99.90;;;;;;5071571;28;20021;-71
2021/05/07 11:22:03;;;;;;;6.50;4.00;;;14.50;99.90;;;;;;5058315;28;20013;-71
2021/05/07 11:24:36;;;;;;;5.65;4.63;;;14.50;99.90;;;;;;5069700;28;20052;-71
2021/05/07 11:27:18;;;;;;;5.10;4.38;;;14.90;99.90;;;;;;5075240;28;20028;-71
2021/05/07 11:29:44;;;;;;;4.60;4.20;;;15.00;99.90;;;;;;5067653;28;20135;-71
2021/05/07 11:32:15;;;;;;;4.72;4.32;;;15.00;99.90;;;;;;5073910;28;20115;-72
2021/05/07 11:34:42;;;;;;;4.90;4.40;;;15.10;99.90;;;;;;5073988;28;20035;-71
2021/05/07 11:37:08;;;;;;;5.85;4.20;;;15.30;99.90;;;;;;5073976;28;20020;-71
2021/05/07 11:39:34;;;;;;;3.95;3.65;;;15.70;99.10;;;;;;5072217;28;20051;-71
2021/05/07 11:42:00;;;;;;;4.25;3.40;;;15.60;99.90;;;;;;5053559;28;20025;-71
2021/05/07 11:44:26;;;;;;;5.85;4.03;;;15.30;99.90;;;;;;5068254;28;20482;-71
2021/05/07 11:47:05;;;;;;;4.22;3.13;;;15.10;98.50;;;;;;5059535;28;20056;-71
2021/05/07 11:49:37;;;;;;;6.13;3.60;;;14.90;98.10;;;;;;5069022;28;20044;-70
2021/05/07 11:52:04;;;;;;;3.45;3.15;;;14.50;96.30;;;;;;5076920;28;20035;-71
2021/05/07 11:54:44;;;;;;;6.15;3.15;;;14.50;97.60;;;;;;5066946;28;20064;-71
2021/05/07 11:57:10;;;;;;;3.40;3.08;;;14.30;97.50;;;;;;5061847;28;20016;-70
2021/05/07 11:59:51;;;;;;;4.35;2.78;;;14.30;99.20;;;;;;5072753;28;20025;-71
2021/05/07 12:02:22;;;;;;;4.28;3.33;;;14.20;99.40;;;;;;5062050;28;20033;-71
2021/05/07 12:04:47;;;;;;;4.60;3.28;;;14.50;98.60;;;;;;5059891;28;20032;-71
2021/05/07 12:07:27;;;;;;;3.42;2.92;;;14.90;97.90;;;;;;5074299;28;20036;-71
2021/05/07 12:09:54;;;;;;;6.95;3.17;;;15.10;96.30;;;;;;5064686;28;20037;-70
2021/05/07 12:12:20;;;;;;;3.33;3.00;;;14.90;97.10;;;;;;5038156;28;20413;-71
2021/05/07 12:14:49;;;;;;;2.65;2.45;;;15.00;93.90;;;;;;5060827;28;20020;-71
2021/05/07 12:17:21;;;;;;;4.43;3.05;;;15.10;95.70;;;;;;5072640;28;20074;-71
2021/05/07 12:20:01;;;;;;;3.15;2.60;;;15.20;95.40;;;;;;5073358;28;20034;-71
2021/05/07 12:22:27;;;;;;;4.32;2.70;;;15.60;97.00;;;;;;5075061;28;20032;-70
2021/05/07 12:24:53;;;;;;;3.38;2.47;;;15.60;95.00;;;;;;5062622;28;20051;-71
2021/05/07 12:27:26;;;;;;;2.72;2.20;;;15.80;92.90;;;;;;5060668;28;20031;-71
2021/05/07 12:29:52;;;;;;;2.47;2.28;;;15.80;92.80;;;;;;5070913;28;20493;-71
2021/05/07 12:32:21;;;;;;;3.00;2.15;;;16.10;92.60;;;;;;5070554;28;20055;-71
2021/05/07 12:34:58;;;;;;;2.90;2.42;;;16.00;91.40;;;;;;5058085;28;20021;-71
2021/05/07 12:37:24;;;;;;;2.85;2.50;;;15.90;89.00;;;;;;5047469;28;20028;-71
2021/05/07 12:39:49;;;;;;;2.90;2.45;;;16.00;91.90;;;;;;5069200;28;20042;-72
2021/05/07 12:42:15;;;;;;;4.05;2.38;;;16.20;90.40;;;;;;5068635;28;20016;-71
2021/05/07 12:44:41;;;;;;;3.05;2.67;;;16.10;92.00;;;;;;5071419;28;20465;-72
2021/05/07 12:47:06;;;;;;;4.20;2.10;;;16.20;90.10;;;;;;5070030;28;20691;-71
2021/05/07 12:49:32;;;;;;;5.90;3.33;;;16.30;93.00;;;;;;5067585;28;20063;-71